Time,TemperatureF,DewpointF,PressureIn,WindDirection,WindDirectionDegrees,WindSpeedMPH,WindSpeedGustMPH,Humidity,HourlyPrecipIn,Conditions,Clouds,dailyrainin,SoftwareType,DateUTC
2013-07-01 00:01:00,63.0,51.0,29.92,NNE,15,5.0,10.0,64,0.00,,,0.00,,2013-07-01 05:01:00,
2013-07-01 00:11:00,64.0,50.0,29.92,NNE,22,6.0,11.0,61,0.00,,,0.00,,2013-07-01 05:11:00,
2013-07-01 00:22:00,64.0,52.0,29.92,NNE,32,6.0,10.0,65,0.00,,,0.00,,2013-07-01 05:22:00,
2013-07-01 00:33:00,64.0,52.0,29.92,NNE,32,6.0,10.0,65,0.00,,,0.00,,2013-07-01 05:33:00,
2013-07-01 00:42:00,63.0,51.0,29.92,North,355,6.0,11.0,65,0.00,,,0.00,,2013-07-01 05:42:00,
2013-07-01 00:52:00,63.0,51.0,29.92,North,355,6.0,11.0,65,0.00,,,0.00,,2013-07-01 05:52:00,
2013-07-01 01:02:00,63.0,51.0,29.92,North,355,6.0,11.0,65,0.00,,,0.00,,2013-07-01 06:02:00,
2013-07-01 01:12:00,63.0,51.0,29.92,NNE,23,6.0,11.0,66,0.00,,,0.00,,2013-07-01 06:12:00,
2013-07-01 01:24:00,64.0,52.0,29.92,NE,34,8.0,12.0,65,0.00,,,0.00,,2013-07-01 06:24:00,
2013-07-01 01:33:00,64.0,52.0,29.92,NE,34,8.0,12.0,65,0.00,,,0.00,,2013-07-01 06:33:00,
2013-07-01 01:43:00,63.0,52.0,29.92,NNE,31,7.0,12.0,67,0.00,,,0.00,,2013-07-01 06:43:00,
2013-07-01 01:53:00,63.0,52.0,29.92,NNE,22,7.0,13.0,67,0.00,,,0.00,,2013-07-01 06:53:00,
2013-07-01 02:01:00,63.0,52.0,29.92,NNE,22,7.0,13.0,67,0.00,,,0.00,,2013-07-01 07:01:00,
2013-07-01 02:11:00,62.0,51.0,29.92,NE,36,7.0,12.0,68,0.00,,,0.00,,2013-07-01 07:11:00,
2013-07-01 02:22:00,62.0,52.0,29.91,NE,35,6.0,11.0,70,0.00,,,0.00,,2013-07-01 07:22:00,
2013-07-01 02:33:00,62.0,52.0,29.91,NE,35,6.0,11.0,70,0.00,,,0.00,,2013-07-01 07:33:00,
2013-07-01 02:43:00,62.0,52.0,29.92,NNE,33,6.0,10.0,70,0.00,,,0.00,,2013-07-01 07:43:00,
2013-07-01 02:53:00,62.0,52.0,29.91,NE,36,8.0,12.0,70,0.00,,,0.00,,2013-07-01 07:53:00,
2013-07-01 03:01:00,62.0,52.0,29.91,NE,36,8.0,12.0,70,0.00,,,0.00,,2013-07-01 08:01:00,
2013-07-01 03:11:00,62.0,52.0,29.91,NE,38,7.0,12.0,71,0.00,,,0.00,,2013-07-01 08:11:00,
2013-07-01 03:22:00,62.0,53.0,29.91,NE,39,8.0,11.0,72,0.00,,,0.00,,2013-07-01 08:22:00,
2013-07-01 03:33:00,62.0,53.0,29.91,NE,39,8.0,11.0,72,0.00,,,0.00,,2013-07-01 08:33:00,
2013-07-01 03:42:00,62.0,54.0,29.92,NNE,23,7.0,12.0,74,0.00,,,0.00,,2013-07-01 08:42:00,
2013-07-01 03:52:00,61.0,53.0,29.92,NNE,22,7.0,11.0,75,0.00,,,0.00,,2013-07-01 08:52:00,
2013-07-01 04:02:00,61.0,53.0,29.92,NNE,22,7.0,11.0,75,0.00,,,0.00,,2013-07-01 09:02:00,
2013-07-01 04:11:00,61.0,53.0,29.92,NE,34,6.0,12.0,76,0.00,,,0.00,,2013-07-01 09:11:00,
2013-07-01 04:34:00,61.0,54.0,29.92,NNE,32,7.0,10.0,77,0.00,,,0.00,,2013-07-01 09:34:00,
2013-07-01 04:43:00,61.0,54.0,29.92,NNE,16,6.0,9.0,78,0.00,,,0.00,,2013-07-01 09:43:00,
2013-07-01 05:03:00,61.0,54.0,29.92,NNE,29,7.0,10.0,79,0.00,,,0.00,,2013-07-01 10:03:00,
2013-07-01 05:11:00,61.0,54.0,29.93,NNE,26,7.0,11.0,79,0.00,,,0.00,,2013-07-01 10:11:00,
2013-07-01 05:33:00,60.0,54.0,29.93,NNE,24,7.0,12.0,80,0.00,,,0.00,,2013-07-01 10:33:00,
2013-07-01 05:42:00,60.0,54.0,29.93,NNE,15,6.0,11.0,82,0.00,,,0.00,,2013-07-01 10:42:00,
2013-07-01 06:02:00,60.0,54.0,29.93,NE,38,7.0,10.0,82,0.00,,,0.00,,2013-07-01 11:02:00,
2013-07-01 06:11:00,60.0,54.0,29.94,NE,36,6.0,9.0,82,0.00,,,0.00,,2013-07-01 11:11:00,
2013-07-01 06:22:00,60.0,54.0,29.94,NE,36,6.0,9.0,82,0.00,,,0.00,,2013-07-01 11:22:00,
2013-07-01 06:33:00,61.0,55.0,29.95,NE,38,6.0,10.0,81,0.00,,,0.00,,2013-07-01 11:33:00,
2013-07-01 06:43:00,62.0,54.0,29.95,NNE,13,8.0,12.0,76,0.00,,,0.00,,2013-07-01 11:43:00,
2013-07-01 06:52:00,62.0,54.0,29.95,NNE,13,8.0,12.0,76,0.00,,,0.00,,2013-07-01 11:52:00,
2013-07-01 07:01:00,62.0,54.0,29.95,NE,36,8.0,11.0,76,0.00,,,0.00,,2013-07-01 12:01:00,
2013-07-01 07:11:00,63.0,55.0,29.95,NNE,27,8.0,13.0,74,0.00,,,0.00,,2013-07-01 12:11:00,
2013-07-01 07:22:00,63.0,55.0,29.95,NNE,27,8.0,13.0,74,0.00,,,0.00,,2013-07-01 12:22:00,
2013-07-01 07:33:00,63.0,55.0,29.95,NE,35,8.0,12.0,74,0.00,,,0.00,,2013-07-01 12:33:00,
2013-07-01 07:43:00,64.0,54.0,29.96,NNE,31,9.0,13.0,71,0.00,,,0.00,,2013-07-01 12:43:00,
2013-07-01 07:53:00,64.0,54.0,29.96,NNE,31,9.0,13.0,71,0.00,,,0.00,,2013-07-01 12:53:00,
2013-07-01 08:02:00,64.0,54.0,29.96,NE,36,8.0,12.0,71,0.00,,,0.00,,2013-07-01 13:02:00,
2013-07-01 08:12:00,65.0,54.0,29.96,NNE,23,9.0,13.0,68,0.00,,,0.00,,2013-07-01 13:12:00,
2013-07-01 08:23:00,65.0,54.0,29.96,NNE,23,9.0,13.0,68,0.00,,,0.00,,2013-07-01 13:23:00,
2013-07-01 08:33:00,65.0,55.0,29.96,NNE,20,10.0,18.0,69,0.00,,,0.00,,2013-07-01 13:33:00,
2013-07-01 08:43:00,66.0,55.0,29.97,NNE,29,9.0,16.0,68,0.00,,,0.00,,2013-07-01 13:43:00,
2013-07-01 08:53:00,66.0,55.0,29.97,NNE,29,9.0,16.0,68,0.00,,,0.00,,2013-07-01 13:53:00,
2013-07-01 09:01:00,67.0,55.0,29.97,NE,44,11.0,21.0,66,0.00,,,0.00,,2013-07-01 14:01:00,
2013-07-01 09:11:00,68.0,56.0,29.97,NE,38,9.0,15.0,65,0.00,,,0.00,,2013-07-01 14:11:00,
2013-07-01 09:22:00,68.0,56.0,29.97,NE,38,9.0,15.0,65,0.00,,,0.00,,2013-07-01 14:22:00,
2013-07-01 09:34:00,69.0,57.0,29.97,ENE,59,10.0,14.0,66,0.00,,,0.00,,2013-07-01 14:34:00,
2013-07-01 09:43:00,69.0,56.0,29.98,NE,42,10.0,17.0,64,0.00,,,0.00,,2013-07-01 14:43:00,
2013-07-01 09:52:00,69.0,56.0,29.98,NE,42,10.0,17.0,64,0.00,,,0.00,,2013-07-01 14:52:00,
2013-07-01 10:02:00,70.0,56.0,29.98,NE,42,10.0,16.0,62,0.00,,,0.00,,2013-07-01 15:02:00,
2013-07-01 10:11:00,71.0,57.0,29.98,NE,38,9.0,14.0,61,0.00,,,0.00,,2013-07-01 15:11:00,
2013-07-01 10:23:00,71.0,57.0,29.98,NE,38,9.0,14.0,61,0.00,,,0.00,,2013-07-01 15:23:00,
2013-07-01 10:34:00,71.0,56.0,29.98,NNE,22,10.0,18.0,59,0.00,,,0.00,,2013-07-01 15:34:00,
2013-07-01 10:43:00,72.0,58.0,29.98,NE,38,10.0,17.0,61,0.00,,,0.00,,2013-07-01 15:43:00,
2013-07-01 10:52:00,72.0,58.0,29.98,NE,38,10.0,17.0,61,0.00,,,0.00,,2013-07-01 15:52:00,
2013-07-01 11:01:00,73.0,59.0,29.97,NNE,32,10.0,16.0,61,0.00,,,0.00,,2013-07-01 16:01:00,
2013-07-01 11:11:00,73.0,57.0,29.98,NNE,28,10.0,16.0,58,0.00,,,0.00,,2013-07-01 16:11:00,
2013-07-01 11:22:00,73.0,57.0,29.98,NNE,28,10.0,16.0,58,0.00,,,0.00,,2013-07-01 16:22:00,
2013-07-01 11:44:00,74.0,56.0,29.97,NNE,31,12.0,18.0,54,0.00,,,0.00,,2013-07-01 16:44:00,
2013-07-01 11:53:00,74.0,56.0,29.97,NNE,31,12.0,18.0,54,0.00,,,0.00,,2013-07-01 16:53:00,
2013-07-01 12:02:00,74.0,55.0,29.97,NNE,22,13.0,20.0,51,0.00,,,0.00,,2013-07-01 17:02:00,
2013-07-01 12:12:00,75.0,56.0,29.97,NE,36,13.0,17.0,51,0.00,,,0.00,,2013-07-01 17:12:00,
2013-07-01 12:23:00,75.0,56.0,29.97,NE,36,13.0,17.0,51,0.00,,,0.00,,2013-07-01 17:23:00,
2013-07-01 12:34:00,76.0,57.0,29.97,NNE,25,9.0,17.0,51,0.00,,,0.00,,2013-07-01 17:34:00,
2013-07-01 12:43:00,76.0,57.0,29.97,NE,42,11.0,18.0,52,0.00,,,0.00,,2013-07-01 17:43:00,
2013-07-01 12:53:00,76.0,57.0,29.97,NE,42,11.0,18.0,52,0.00,,,0.00,,2013-07-01 17:53:00,
2013-07-01 13:02:00,76.0,57.0,29.97,NE,49,14.0,20.0,51,0.00,,,0.00,,2013-07-01 18:02:00,
2013-07-01 13:11:00,76.0,55.0,29.96,NNE,32,15.0,23.0,48,0.00,,,0.00,,2013-07-01 18:11:00,
2013-07-01 13:22:00,76.0,55.0,29.96,NNE,32,15.0,23.0,48,0.00,,,0.00,,2013-07-01 18:22:00,
2013-07-01 13:33:00,76.0,57.0,29.96,NE,44,11.0,20.0,51,0.00,,,0.00,,2013-07-01 18:33:00,
2013-07-01 14:02:00,76.0,55.0,29.96,NNE,18,15.0,24.0,48,0.00,,,0.00,,2013-07-01 19:02:00,
2013-07-01 14:11:00,76.0,56.0,29.96,NE,34,14.0,23.0,50,0.00,,,0.00,,2013-07-01 19:11:00,
2013-07-01 14:22:00,76.0,56.0,29.96,NE,34,14.0,23.0,50,0.00,,,0.00,,2013-07-01 19:22:00,
2013-07-01 14:33:00,76.0,57.0,29.96,NE,39,13.0,22.0,51,0.00,,,0.00,,2013-07-01 19:33:00,
2013-07-01 14:44:00,76.0,57.0,29.96,NE,40,15.0,22.0,51,0.00,,,0.00,,2013-07-01 19:44:00,
2013-07-01 14:52:00,76.0,57.0,29.96,NE,40,15.0,22.0,51,0.00,,,0.00,,2013-07-01 19:52:00,
2013-07-01 15:02:00,76.0,57.0,29.97,NNE,32,13.0,20.0,51,0.00,,,0.00,,2013-07-01 20:02:00,
2013-07-01 15:43:00,76.0,55.0,29.96,NNE,27,16.0,22.0,49,0.00,,,0.00,,2013-07-01 20:43:00,
2013-07-01 15:52:00,76.0,55.0,29.96,NNE,27,16.0,22.0,49,0.00,,,0.00,,2013-07-01 20:52:00,
2013-07-01 16:02:00,76.0,56.0,29.96,NE,52,15.0,22.0,50,0.00,,,0.00,,2013-07-01 21:02:00,
2013-07-01 16:11:00,75.0,55.0,29.97,NNE,28,14.0,21.0,49,0.00,,,0.00,,2013-07-01 21:11:00,
2013-07-01 16:24:00,75.0,55.0,29.97,NNE,28,14.0,21.0,49,0.00,,,0.00,,2013-07-01 21:24:00,
2013-07-01 16:34:00,76.0,55.0,29.97,NNE,25,14.0,20.0,48,0.00,,,0.00,,2013-07-01 21:34:00,
2013-07-01 16:43:00,75.0,55.0,29.97,ENE,60,14.0,20.0,50,0.00,,,0.00,,2013-07-01 21:43:00,
2013-07-01 16:53:00,75.0,55.0,29.97,ENE,60,14.0,20.0,50,0.00,,,0.00,,2013-07-01 21:53:00,
2013-07-01 17:01:00,75.0,55.0,29.97,NE,34,13.0,18.0,50,0.00,,,0.00,,2013-07-01 22:01:00,
2013-07-01 17:11:00,75.0,55.0,29.96,NNE,28,14.0,20.0,50,0.00,,,0.00,,2013-07-01 22:11:00,
2013-07-01 17:24:00,75.0,55.0,29.96,NNE,28,14.0,20.0,50,0.00,,,0.00,,2013-07-01 22:24:00,
2013-07-01 17:33:00,75.0,54.0,29.96,NE,46,14.0,21.0,48,0.00,,,0.00,,2013-07-01 22:33:00,
2013-07-01 17:43:00,74.0,55.0,29.96,NNE,29,12.0,20.0,52,0.00,,,0.00,,2013-07-01 22:43:00,
2013-07-01 17:53:00,74.0,55.0,29.96,NNE,29,12.0,20.0,52,0.00,,,0.00,,2013-07-01 22:53:00,
2013-07-01 18:01:00,73.0,54.0,29.96,NNE,25,14.0,20.0,52,0.00,,,0.00,,2013-07-01 23:01:00,
2013-07-01 18:11:00,74.0,56.0,29.96,NE,35,12.0,19.0,53,0.00,,,0.00,,2013-07-01 23:11:00,
2013-07-01 18:22:00,74.0,56.0,29.96,NE,35,12.0,19.0,53,0.00,,,0.00,,2013-07-01 23:22:00,
2013-07-01 18:33:00,73.0,55.0,29.97,NE,36,14.0,20.0,54,0.00,,,0.00,,2013-07-01 23:33:00,
2013-07-01 18:44:00,73.0,55.0,29.97,NE,46,11.0,16.0,54,0.00,,,0.00,,2013-07-01 23:44:00,
2013-07-01 18:53:00,73.0,55.0,29.97,NE,46,11.0,16.0,54,0.00,,,0.00,,2013-07-01 23:53:00,
2013-07-01 19:01:00,73.0,55.0,29.97,NE,40,11.0,17.0,53,0.00,,,0.00,,2013-07-02 00:01:00,
2013-07-01 19:12:00,72.0,55.0,29.98,NE,38,11.0,18.0,55,0.00,,,0.00,,2013-07-02 00:12:00,
2013-07-01 19:22:00,72.0,55.0,29.98,NE,38,11.0,18.0,55,0.00,,,0.00,,2013-07-02 00:22:00,
2013-07-01 19:34:00,72.0,57.0,29.97,NNE,30,7.0,17.0,59,0.00,,,0.00,,2013-07-02 00:34:00,
2013-07-01 19:53:00,71.0,55.0,29.97,NE,40,11.0,16.0,58,0.00,,,0.00,,2013-07-02 00:53:00,
2013-07-01 20:01:00,71.0,56.0,29.97,NNE,29,11.0,15.0,59,0.00,,,0.00,,2013-07-02 01:01:00,
2013-07-01 20:11:00,70.0,56.0,29.97,NE,50,10.0,14.0,61,0.00,,,0.00,,2013-07-02 01:11:00,
2013-07-01 20:22:00,70.0,56.0,29.97,NE,50,10.0,14.0,61,0.00,,,0.00,,2013-07-02 01:22:00,
2013-07-01 20:33:00,70.0,56.0,29.98,NNE,28,9.0,15.0,61,0.00,,,0.00,,2013-07-02 01:33:00,
2013-07-01 20:43:00,69.0,56.0,29.98,NE,40,8.0,14.0,63,0.00,,,0.00,,2013-07-02 01:43:00,
2013-07-01 20:53:00,69.0,56.0,29.98,NE,40,8.0,14.0,63,0.00,,,0.00,,2013-07-02 01:53:00,
2013-07-01 21:02:00,68.0,56.0,29.98,NNE,29,6.0,14.0,65,0.00,,,0.00,,2013-07-02 02:02:00,
2013-07-01 21:11:00,68.0,56.0,29.98,NNE,29,8.0,13.0,66,0.00,,,0.00,,2013-07-02 02:11:00,
2013-07-01 21:22:00,68.0,56.0,29.98,NNE,29,8.0,13.0,66,0.00,,,0.00,,2013-07-02 02:22:00,
2013-07-01 21:33:00,67.0,56.0,29.98,NNE,20,5.0,9.0,69,0.00,,,0.00,,2013-07-02 02:33:00,
2013-07-01 21:43:00,67.0,57.0,29.99,NNE,32,6.0,9.0,70,0.00,,,0.00,,2013-07-02 02:43:00,
2013-07-01 21:53:00,67.0,57.0,29.99,NNE,32,6.0,9.0,70,0.00,,,0.00,,2013-07-02 02:53:00,
2013-07-01 22:01:00,66.0,56.0,30.00,NE,40,6.0,11.0,69,0.00,,,0.00,,2013-07-02 03:01:00,
2013-07-01 22:12:00,66.0,56.0,30.00,NNE,33,7.0,11.0,71,0.00,,,0.00,,2013-07-02 03:12:00,
2013-07-01 22:24:00,66.0,56.0,30.00,NNE,33,7.0,11.0,71,0.00,,,0.00,,2013-07-02 03:24:00,
2013-07-01 22:32:00,66.0,57.0,30.00,NNE,25,5.0,11.0,72,0.00,,,0.00,,2013-07-02 03:32:00,
2013-07-01 22:43:00,66.0,56.0,30.00,NNE,24,7.0,11.0,71,0.00,,,0.00,,2013-07-02 03:43:00,
2013-07-01 22:53:00,66.0,56.0,30.00,NNE,24,7.0,11.0,71,0.00,,,0.00,,2013-07-02 03:53:00,
2013-07-01 23:02:00,65.0,56.0,29.99,NNE,30,6.0,10.0,72,0.00,,,0.00,,2013-07-02 04:02:00,
2013-07-01 23:11:00,65.0,55.0,30.00,NE,35,6.0,12.0,70,0.00,,,0.00,,2013-07-02 04:11:00,
2013-07-01 23:22:00,65.0,55.0,30.00,NE,35,6.0,12.0,70,0.00,,,0.00,,2013-07-02 04:22:00,
2013-07-01 23:32:00,65.0,55.0,30.00,NE,35,6.0,12.0,70,0.00,,,0.00,,2013-07-02 04:32:00,
2013-07-01 23:42:00,65.0,55.0,30.00,NE,35,6.0,12.0,70,0.00,,,0.00,,2013-07-02 04:42:00,
2013-07-01 23:53:00,65.0,55.0,29.99,NNE,32,6.0,11.0,70,0.00,,,0.00,,2013-07-02 04:53:00,